Time;durP1;ratioP1;P1;durP2;ratioP2;P2;SDS_P1;SDS_P2;PMS_P1;PMS_P2;Temp;Humidity;BMP_temperature;BMP_pressure;BME280_temperature;BME280_humidity;BME280_pressure;Samples;Min_cycle;Max_cycle;Signal;HPM_P1;HPM_P2
2024/01/16 00:01:06;;;;;;;1.73;1.38;;;2.40;99.90;;;;;;4986458;28;20210;-70
2024/01/16 00:03:33;;;;;;;3.65;1.52;;;2.30;99.90;;;;;;4989453;28;20262;-72
2024/01/16 00:06:02;;;;;;;2.33;2.13;;;2.30;99.90;;;;;;4992241;28;20214;-71
2024/01/16 00:08:29;;;;;;;3.00;1.33;;;2.30;99.90;;;;;;4994856;28;20280;-71
2024/01/16 00:10:56;;;;;;;4.07;2.45;;;2.30;99.90;;;;;;4988396;28;20219;-71
2024/01/16 00:13:23;;;;;;;1.52;1.42;;;2.30;99.90;;;;;;4991409;28;20233;-70
2024/01/16 00:15:50;;;;;;;7.22;1.90;;;2.40;99.90;;;;;;4991946;28;20238;-71
2024/01/16 00:18:17;;;;;;;3.22;1.45;;;2.30;99.90;;;;;;4991964;28;20289;-70
2024/01/16 00:20:44;;;;;;;4.60;1.55;;;2.20;99.90;;;;;;4994383;28;20221;-68
2024/01/16 00:23:13;;;;;;;2.55;1.48;;;2.20;99.90;;;;;;4993799;28;20222;-72
2024/01/16 00:25:41;;;;;;;2.60;1.42;;;2.20;99.90;;;;;;4992126;28;20206;-69
2024/01/16 00:28:08;;;;;;;6.70;1.80;;;2.10;99.90;;;;;;4993372;28;20210;-69
2024/01/16 00:30:34;;;;;;;2.20;1.33;;;2.00;99.90;;;;;;4992839;28;20619;-70
2024/01/16 00:33:02;;;;;;;7.25;1.63;;;2.00;99.90;;;;;;4987354;28;20262;-69
2024/01/16 00:35:29;;;;;;;6.10;1.40;;;2.00;99.90;;;;;;4985070;28;20577;-71
2024/01/16 00:37:56;;;;;;;2.03;1.50;;;1.90;99.90;;;;;;4989795;28;20237;-70
2024/01/16 00:40:24;;;;;;;4.05;2.70;;;2.00;99.90;;;;;;4993864;28;20205;-71
2024/01/16 00:42:51;;;;;;;2.92;1.60;;;2.00;99.90;;;;;;4993145;28;20697;-71
2024/01/16 00:45:18;;;;;;;2.45;1.95;;;2.10;99.90;;;;;;4985294;28;20249;-70
2024/01/16 00:47:45;;;;;;;3.78;1.55;;;2.10;99.90;;;;;;4981096;28;20693;-71
2024/01/16 00:50:12;;;;;;;1.30;1.20;;;2.20;99.90;;;;;;4981023;28;20209;-69
2024/01/16 00:52:39;;;;;;;1.90;1.15;;;2.30;99.90;;;;;;4992302;28;20229;-69
2024/01/16 00:55:07;;;;;;;1.60;1.35;;;2.30;99.90;;;;;;4979301;28;20266;-69
2024/01/16 00:57:35;;;;;;;2.72;1.80;;;2.30;99.90;;;;;;4992431;28;20565;-71
2024/01/16 01:00:03;;;;;;;3.45;2.40;;;2.30;99.90;;;;;;4986230;28;20224;-69
2024/01/16 01:02:30;;;;;;;4.60;2.75;;;2.30;99.90;;;;;;4981557;28;20323;-69
2024/01/16 01:04:57;;;;;;;4.13;2.55;;;2.40;99.90;;;;;;4986998;28;20265;-71
2024/01/16 01:07:25;;;;;;;2.47;1.77;;;2.50;99.90;;;;;;4989571;28;20261;-71
2024/01/16 01:09:52;;;;;;;6.32;3.75;;;2.30;99.90;;;;;;4993198;28;20212;-69
2024/01/16 01:12:19;;;;;;;3.75;3.33;;;2.30;99.90;;;;;;4988830;28;20265;-68
2024/01/16 01:14:48;;;;;;;8.75;4.53;;;2.40;99.90;;;;;;4984129;28;20202;-69
2024/01/16 01:17:15;;;;;;;7.25;4.68;;;2.40;99.90;;;;;;4989808;28;20653;-69
2024/01/16 01:19:42;;;;;;;6.68;4.32;;;2.40;99.90;;;;;;4993594;28;20264;-72
2024/01/16 01:22:09;;;;;;;3.65;2.00;;;2.30;99.90;;;;;;4983071;28;20227;-71
2024/01/16 01:24:36;;;;;;;2.10;1.60;;;2.30;99.90;;;;;;4992280;28;20291;-70
2024/01/16 01:27:03;;;;;;;2.92;1.60;;;2.20;99.90;;;;;;4989627;28;20242;-71
2024/01/16 01:29:29;;;;;;;2.38;1.50;;;2.20;99.90;;;;;;4992229;28;20672;-71
2024/01/16 01:31:58;;;;;;;2.27;1.43;;;2.10;99.90;;;;;;4989294;28;20232;-71
2024/01/16 01:34:25;;;;;;;8.88;1.83;;;2.00;99.90;;;;;;4986083;28;20485;-70
2024/01/16 01:36:51;;;;;;;1.15;1.05;;;2.00;99.90;;;;;;4988925;28;20261;-71
2024/01/16 01:39:18;;;;;;;4.10;1.63;;;2.00;99.90;;;;;;4984885;28;20198;-69
2024/01/16 01:41:45;;;;;;;1.13;1.00;;;2.00;99.90;;;;;;4985274;28;20612;-71
2024/01/16 01:44:15;;;;;;;3.38;1.25;;;2.10;99.90;;;;;;4991421;28;20226;-70
2024/01/16 01:46:42;;;;;;;2.75;0.93;;;2.00;99.90;;;;;;4997970;28;20213;-71
2024/01/16 01:49:14;;;;;;;3.40;1.10;;;2.00;99.90;;;;;;4996048;28;20283;-72
2024/01/16 01:51:41;;;;;;;3.10;0.90;;;1.90;99.90;;;;;;4989986;28;20689;-69
2024/01/16 01:54:09;;;;;;;2.85;1.20;;;1.90;99.90;;;;;;4986722;28;20230;-69
2024/01/16 01:56:37;;;;;;;3.70;1.60;;;1.80;99.90;;;;;;4988213;28;20230;-71
2024/01/16 01:59:04;;;;;;;1.05;0.88;;;1.70;99.90;;;;;;4981112;28;20207;-71
2024/01/16 02:01:32;;;;;;;4.22;1.25;;;1.70;99.90;;;;;;4987503;28;20277;-69
2024/01/16 02:04:01;;;;;;;1.98;0.80;;;1.70;99.90;;;;;;4987288;28;20284;-68
2024/01/16 02:06:29;;;;;;;1.88;0.88;;;1.70;99.90;;;;;;4986603;28;20246;-69
2024/01/16 02:08:56;;;;;;;2.13;1.02;;;1.80;99.90;;;;;;4981381;28;20289;-69
2024/01/16 02:11:23;;;;;;;2.40;0.90;;;1.80;99.90;;;;;;4990838;28;20233;-70
2024/01/16 02:13:50;;;;;;;4.10;1.50;;;1.80;99.90;;;;;;4984430;28;20709;-69
2024/01/16 02:16:20;;;;;;;1.67;0.82;;;1.80;99.90;;;;;;4987445;28;20218;-70
2024/01/16 02:18:47;;;;;;;2.60;1.50;;;1.70;99.90;;;;;;5005719;28;20198;-71
2024/01/16 02:21:19;;;;;;;3.10;1.10;;;1.80;99.90;;;;;;4983433;28;20245;-72
2024/01/16 02:23:47;;;;;;;2.20;1.25;;;1.70;99.90;;;;;;4984842;28;20281;-69
2024/01/16 02:26:15;;;;;;;6.85;1.35;;;1.70;99.90;;;;;;4982329;28;20712;-72
2024/01/16 02:28:42;;;;;;;2.42;1.40;;;1.70;99.90;;;;;;4989799;28;20213;-72
2024/01/16 02:31:09;;;;;;;3.40;1.40;;;1.60;99.90;;;;;;4989249;28;20622;-71
2024/01/16 02:33:36;;;;;;;4.70;1.60;;;1.50;99.90;;;;;;4995309;28;20272;-71
2024/01/16 02:36:03;;;;;;;1.38;1.20;;;1.50;99.90;;;;;;4981888;28;20206;-70
2024/01/16 02:38:30;;;;;;;4.85;1.60;;;1.50;99.90;;;;;;4985117;28;20241;-70
2024/01/16 02:40:59;;;;;;;3.63;1.88;;;1.60;99.90;;;;;;4987302;28;20257;-71
2024/01/16 02:43:27;;;;;;;2.45;1.05;;;1.60;99.90;;;;;;4982128;28;20225;-71
2024/01/16 02:45:54;;;;;;;2.05;1.42;;;1.60;99.90;;;;;;4995744;28;20261;-71
2024/01/16 02:48:21;;;;;;;2.80;1.77;;;1.70;99.90;;;;;;4990961;28;20202;-71
2024/01/16 02:50:48;;;;;;;3.63;1.70;;;1.60;99.90;;;;;;4995362;28;20296;-69
2024/01/16 02:53:18;;;;;;;3.08;2.53;;;1.60;99.90;;;;;;4999904;28;20576;-68
2024/01/16 02:55:45;;;;;;;5.15;1.80;;;1.60;99.90;;;;;;4995962;28;20229;-71
2024/01/16 02:58:13;;;;;;;3.50;2.10;;;1.60;99.90;;;;;;4995895;28;20650;-69
2024/01/16 03:00:40;;;;;;;4.72;3.40;;;1.50;99.90;;;;;;4985273;28;20918;-69
2024/01/16 03:03:08;;;;;;;5.50;2.15;;;1.40;99.90;;;;;;4993766;28;20249;-70
2024/01/16 03:05:35;;;;;;;4.93;2.95;;;1.50;99.90;;;;;;4990987;28;20293;-70
2024/01/16 03:08:01;;;;;;;7.65;3.00;;;1.50;99.90;;;;;;4987295;28;20457;-68
2024/01/16 03:10:28;;;;;;;4.25;3.30;;;1.50;99.90;;;;;;4991697;28;20570;-68
2024/01/16 03:12:57;;;;;;;6.00;2.55;;;1.50;99.90;;;;;;4987333;28;20289;-71
2024/01/16 03:15:26;;;;;;;5.78;2.85;;;1.50;99.90;;;;;;4990005;28;20390;-68
2024/01/16 03:17:53;;;;;;;3.92;2.53;;;1.40;99.90;;;;;;4984771;28;20206;-69
2024/01/16 03:20:20;;;;;;;7.30;2.25;;;1.40;99.90;;;;;;4991563;28;20234;-69
2024/01/16 03:22:47;;;;;;;4.50;1.73;;;1.40;99.90;;;;;;4987244;28;20257;-69
2024/01/16 03:25:14;;;;;;;5.85;2.65;;;1.30;99.90;;;;;;4991342;28;20559;-69
2024/01/16 03:27:41;;;;;;;5.22;2.25;;;1.30;99.90;;;;;;4984140;28;20245;-69
2024/01/16 03:30:09;;;;;;;6.72;2.47;;;1.20;99.90;;;;;;4993562;28;20242;-69
2024/01/16 03:32:38;;;;;;;4.75;2.58;;;1.20;99.90;;;;;;4989936;28;20331;-68
2024/01/16 03:35:07;;;;;;;6.65;2.40;;;1.30;99.90;;;;;;4987082;28;20607;-68
2024/01/16 03:37:34;;;;;;;3.22;1.58;;;1.20;99.90;;;;;;4986717;28;20216;-69
2024/01/16 03:40:01;;;;;;;7.65;1.70;;;1.20;99.90;;;;;;4991756;28;20213;-68
2024/01/16 03:42:28;;;;;;;5.63;2.00;;;1.10;99.90;;;;;;4989896;28;20677;-69
2024/01/16 03:44:55;;;;;;;7.88;2.15;;;1.10;99.90;;;;;;4994396;28;20731;-69
2024/01/16 03:47:23;;;;;;;4.05;1.80;;;1.00;99.90;;;;;;4989379;28;20325;-69
2024/01/16 03:49:52;;;;;;;6.22;1.60;;;0.90;99.90;;;;;;4991169;28;20645;-71
2024/01/16 03:52:19;;;;;;;1.98;1.20;;;0.90;99.90;;;;;;4995745;28;20225;-69
2024/01/16 03:54:46;;;;;;;4.03;1.95;;;1.00;99.90;;;;;;4988683;28;20328;-69
2024/01/16 03:57:13;;;;;;;8.00;2.15;;;0.90;99.90;;;;;;4991432;28;20238;-70
2024/01/16 03:59:40;;;;;;;14.20;3.08;;;0.90;99.90;;;;;;4984198;28;20214;-71
2024/01/16 04:02:07;;;;;;;4.00;2.33;;;0.80;99.90;;;;;;4988854;28;20230;-70
2024/01/16 04:04:36;;;;;;;8.00;2.10;;;0.70;99.90;;;;;;4987765;28;20226;-70
2024/01/16 04:07:04;;;;;;;4.35;1.63;;;0.70;99.90;;;;;;4981911;28;20254;-70
2024/01/16 04:09:31;;;;;;;4.25;1.55;;;0.70;99.90;;;;;;4993138;28;20645;-68
2024/01/16 04:11:58;;;;;;;7.53;2.15;;;0.60;99.90;;;;;;4993064;28;20277;-70
2024/01/16 04:14:25;;;;;;;4.60;2.08;;;0.60;99.90;;;;;;4984391;28;20258;-71
2024/01/16 04:16:52;;;;;;;3.30;1.70;;;0.50;99.90;;;;;;4988131;28;20556;-69
2024/01/16 04:19:19;;;;;;;6.10;2.35;;;0.50;99.90;;;;;;4988974;28;20679;-70
2024/01/16 04:21:46;;;;;;;5.32;1.20;;;0.50;99.90;;;;;;4993475;28;20249;-70
2024/01/16 04:24:14;;;;;;;4.82;1.73;;;0.50;99.90;;;;;;4984411;28;20621;-70
2024/01/16 04:26:41;;;;;;;4.18;2.00;;;0.60;99.90;;;;;;4984864;28;20661;-68
2024/01/16 04:29:09;;;;;;;10.55;2.10;;;0.50;99.90;;;;;;4984995;28;20662;-69
2024/01/16 04:31:40;;;;;;;6.07;2.08;;;0.40;99.90;;;;;;4986876;28;20652;-68
2024/01/16 04:34:07;;;;;;;8.35;1.98;;;0.40;99.90;;;;;;4993176;28;20226;-69
2024/01/16 04:36:34;;;;;;;5.75;1.48;;;0.40;99.90;;;;;;4989900;28;20203;-70
2024/01/16 04:39:03;;;;;;;3.03;1.60;;;0.30;99.90;;;;;;4985714;28;20246;-69
2024/01/16 04:41:32;;;;;;;4.30;1.30;;;0.30;99.90;;;;;;4983244;28;20294;-67
2024/01/16 04:44:00;;;;;;;7.95;2.00;;;0.30;99.90;;;;;;4985527;28;20245;-69
2024/01/16 04:46:27;;;;;;;4.75;1.67;;;0.40;99.90;;;;;;4981549;28;20218;-69
2024/01/16 04:48:53;;;;;;;4.10;1.55;;;0.30;99.90;;;;;;4990842;28;20636;-69
2024/01/16 04:51:20;;;;;;;13.80;1.80;;;0.30;99.90;;;;;;4994481;28;20293;-69
2024/01/16 04:53:47;;;;;;;6.82;2.10;;;0.30;99.90;;;;;;4997435;28;20547;-68
2024/01/16 04:56:14;;;;;;;2.67;1.58;;;0.30;99.90;;;;;;4989168;28;20237;-70
2024/01/16 04:58:42;;;;;;;9.73;1.92;;;0.40;99.90;;;;;;4989088;28;20245;-68
2024/01/16 05:01:09;;;;;;;5.60;1.92;;;0.40;99.90;;;;;;4990644;28;20262;-70
2024/01/16 05:03:36;;;;;;;6.93;2.67;;;0.40;99.90;;;;;;4986927;28;20268;-68
2024/01/16 05:06:03;;;;;;;5.22;1.30;;;0.30;99.90;;;;;;4990187;28;20665;-69
2024/01/16 05:08:30;;;;;;;10.27;1.75;;;0.30;99.90;;;;;;4989617;28;20689;-69
2024/01/16 05:10:59;;;;;;;5.82;1.52;;;0.30;99.90;;;;;;4984238;28;20217;-71
2024/01/16 05:13:26;;;;;;;3.50;1.70;;;0.30;99.90;;;;;;4990775;28;20229;-69
2024/01/16 05:15:54;;;;;;;4.35;1.40;;;0.30;99.90;;;;;;4992479;28;20214;-70
2024/01/16 05:18:21;;;;;;;5.20;2.00;;;0.30;99.90;;;;;;4984153;28;20278;-69
2024/01/16 05:20:48;;;;;;;7.97;1.80;;;0.30;99.90;;;;;;4987935;28;20272;-70
2024/01/16 05:23:17;;;;;;;9.05;2.97;;;0.30;99.90;;;;;;4989712;28;20703;-69
2024/01/16 05:25:44;;;;;;;4.47;1.75;;;0.40;99.90;;;;;;4988995;28;20214;-68
2024/01/16 05:28:11;;;;;;;6.15;1.98;;;0.30;99.90;;;;;;4984051;28;20254;-70
2024/01/16 05:30:38;;;;;;;3.72;1.83;;;0.40;99.90;;;;;;4982145;28;20253;-70
2024/01/16 05:33:09;;;;;;;11.98;2.40;;;0.50;99.90;;;;;;4988239;28;20253;-69
2024/01/16 05:35:36;;;;;;;4.95;2.00;;;0.60;99.90;;;;;;4980094;28;20223;-70
2024/01/16 05:38:04;;;;;;;2.92;1.67;;;0.70;99.90;;;;;;4982067;28;20207;-70
2024/01/16 05:40:31;;;;;;;11.52;1.83;;;0.80;99.90;;;;;;4986373;28;20209;-72
2024/01/16 05:42:58;;;;;;;7.35;2.42;;;0.80;99.90;;;;;;4980241;28;20237;-69
2024/01/16 05:45:25;;;;;;;7.85;2.00;;;0.80;99.90;;;;;;4990107;28;20237;-69
2024/01/16 05:47:52;;;;;;;11.13;1.80;;;0.80;99.90;;;;;;4982337;28;20199;-69
2024/01/16 05:50:20;;;;;;;10.52;2.20;;;0.70;99.90;;;;;;4988809;28;20606;-69
2024/01/16 05:52:47;;;;;;;7.60;1.40;;;0.70;99.90;;;;;;4998277;28;20372;-71
2024/01/16 05:55:14;;;;;;;8.82;3.42;;;0.70;99.90;;;;;;4991857;28;20648;-71
2024/01/16 05:57:43;;;;;;;5.50;1.35;;;0.70;99.90;;;;;;4989909;28;20246;-69
2024/01/16 06:00:11;;;;;;;6.35;2.00;;;0.60;99.90;;;;;;4981389;28;20222;-71
2024/01/16 06:02:38;;;;;;;3.28;1.58;;;0.70;99.90;;;;;;4987757;28;20226;-70
2024/01/16 06:05:05;;;;;;;5.30;1.77;;;0.70;99.90;;;;;;4991735;28;20203;-70
2024/01/16 06:07:34;;;;;;;8.55;3.83;;;0.80;99.90;;;;;;4984705;28;20712;-71
2024/01/16 06:10:01;;;;;;;4.75;2.10;;;0.90;99.90;;;;;;4984121;28;20202;-68
2024/01/16 06:12:28;;;;;;;9.40;2.15;;;0.90;99.90;;;;;;4984967;28;20230;-72
2024/01/16 06:14:55;;;;;;;10.02;2.63;;;0.90;99.90;;;;;;4979394;28;20639;-70
2024/01/16 06:17:22;;;;;;;7.85;2.45;;;0.90;99.90;;;;;;4993790;28;20621;-71
2024/01/16 06:19:49;;;;;;;3.75;2.28;;;1.00;99.90;;;;;;4988579;28;20206;-73
2024/01/16 06:22:16;;;;;;;8.48;2.70;;;0.90;99.90;;;;;;4989536;28;20716;-73
2024/01/16 06:24:44;;;;;;;16.17;3.35;;;0.90;99.90;;;;;;4991021;28;20276;-72
2024/01/16 06:27:18;;;;;;;7.47;2.75;;;1.00;99.90;;;;;;4983084;28;20284;-73
2024/01/16 06:29:45;;;;;;;3.53;2.10;;;1.00;99.90;;;;;;4987183;28;20205;-70
2024/01/16 06:32:13;;;;;;;8.38;3.05;;;1.00;99.90;;;;;;4990053;28;20253;-72
2024/01/16 06:34:40;;;;;;;6.95;2.47;;;1.20;99.90;;;;;;4989533;28;20304;-70
2024/01/16 06:37:08;;;;;;;7.95;2.20;;;1.10;99.90;;;;;;4983861;28;20256;-70
2024/01/16 06:39:35;;;;;;;7.53;3.00;;;1.10;99.90;;;;;;4986887;28;20213;-70
2024/01/16 06:42:04;;;;;;;10.27;3.45;;;1.10;99.90;;;;;;4986608;28;20263;-71
2024/01/16 06:44:31;;;;;;;6.88;2.80;;;1.20;99.90;;;;;;4988692;28;20199;-68
2024/01/16 06:46:58;;;;;;;6.07;2.85;;;1.10;99.90;;;;;;4985452;28;20289;-71
2024/01/16 06:49:26;;;;;;;10.20;2.85;;;1.10;99.90;;;;;;4985361;28;20261;-70
2024/01/16 06:51:53;;;;;;;18.10;5.63;;;1.10;99.90;;;;;;4995200;28;20237;-71
2024/01/16 06:54:23;;;;;;;6.60;2.80;;;1.00;99.90;;;;;;4987713;28;20226;-71
2024/01/16 06:56:50;;;;;;;9.02;3.47;;;1.10;99.90;;;;;;4985903;28;20203;-70
2024/01/16 06:59:21;;;;;;;8.25;3.33;;;1.00;99.90;;;;;;4984558;28;20202;-70
2024/01/16 07:01:48;;;;;;;6.93;2.88;;;0.90;99.90;;;;;;4990379;28;20222;-70
2024/01/16 07:04:15;;;;;;;12.48;5.90;;;0.90;99.90;;;;;;4991790;28;20206;-71
2024/01/16 07:06:43;;;;;;;9.15;3.65;;;0.90;99.90;;;;;;4994655;28;20387;-69
2024/01/16 07:09:10;;;;;;;8.32;2.70;;;0.90;99.90;;;;;;4995123;28;20213;-72
2024/01/16 07:11:38;;;;;;;9.45;3.92;;;0.80;99.90;;;;;;4987047;28;20222;-69
2024/01/16 07:14:08;;;;;;;8.70;3.58;;;0.90;99.90;;;;;;4991341;28;20210;-71
2024/01/16 07:16:36;;;;;;;14.93;3.40;;;0.90;99.90;;;;;;4988112;28;20253;-71
2024/01/16 07:19:03;;;;;;;12.75;2.80;;;0.90;99.90;;;;;;4995226;28;20729;-71
2024/01/16 07:21:30;;;;;;;9.65;4.13;;;0.90;99.90;;;;;;4985631;28;20206;-70
2024/01/16 07:23:57;;;;;;;6.70;3.90;;;0.90;99.90;;;;;;4988662;28;20215;-70
2024/01/16 07:26:25;;;;;;;6.05;3.20;;;0.90;99.90;;;;;;4985019;28;20241;-71
2024/01/16 07:28:52;;;;;;;5.93;2.90;;;0.90;99.90;;;;;;4986132;28;20205;-72
2024/01/16 07:31:19;;;;;;;9.60;4.00;;;0.90;99.90;;;;;;4987275;28;20592;-69
2024/01/16 07:33:48;;;;;;;11.57;3.95;;;0.90;99.90;;;;;;4985996;28;20203;-71
2024/01/16 07:36:15;;;;;;;6.88;3.15;;;0.90;99.90;;;;;;4990205;28;20272;-69
2024/01/16 07:38:42;;;;;;;5.63;2.83;;;1.00;99.90;;;;;;4994838;28;20209;-71
2024/01/16 07:41:09;;;;;;;10.27;3.80;;;1.00;99.90;;;;;;4987734;28;20272;-70
2024/01/16 07:43:36;;;;;;;8.90;3.13;;;1.00;99.90;;;;;;4990981;28;20260;-71
2024/01/16 07:46:03;;;;;;;11.68;2.53;;;1.00;99.90;;;;;;4991074;28;20202;-70
2024/01/16 07:48:30;;;;;;;17.63;3.95;;;1.10;99.90;;;;;;4991850;28;20234;-71
2024/01/16 07:50:59;;;;;;;5.78;2.88;;;1.10;99.90;;;;;;4993584;28;20284;-70
2024/01/16 07:53:27;;;;;;;14.25;2.50;;;1.10;99.90;;;;;;4997563;28;20258;-71
2024/01/16 07:55:55;;;;;;;8.63;2.30;;;1.10;99.90;;;;;;4985575;28;20793;-69
2024/01/16 07:58:22;;;;;;;6.72;2.53;;;1.30;99.90;;;;;;4994065;28;20285;-69
2024/01/16 08:00:49;;;;;;;7.20;2.80;;;1.20;99.90;;;;;;4988202;28;20246;-69
2024/01/16 08:03:17;;;;;;;8.93;3.20;;;1.20;99.90;;;;;;4992865;28;20265;-70
2024/01/16 08:05:44;;;;;;;13.48;3.10;;;1.30;99.90;;;;;;4993253;28;20206;-69
2024/01/16 08:08:12;;;;;;;8.13;2.88;;;1.30;99.90;;;;;;4990622;28;20252;-68
2024/01/16 08:10:41;;;;;;;13.52;2.50;;;1.30;99.90;;;;;;4987969;28;20309;-70
2024/01/16 08:13:08;;;;;;;9.00;2.60;;;1.40;99.90;;;;;;4989180;28;20252;-71
2024/01/16 08:15:35;;;;;;;13.35;2.10;;;1.40;99.90;;;;;;4994784;28;20249;-69
2024/01/16 08:18:03;;;;;;;9.93;2.85;;;1.50;99.90;;;;;;4994653;28;20233;-71
2024/01/16 08:20:30;;;;;;;8.73;2.30;;;1.50;99.90;;;;;;4991087;28;20716;-70
2024/01/16 08:22:59;;;;;;;11.15;2.67;;;1.60;99.90;;;;;;4992602;28;20225;-70
2024/01/16 08:25:27;;;;;;;9.05;2.10;;;1.60;99.90;;;;;;4987792;28;20293;-69
2024/01/16 08:27:54;;;;;;;9.27;2.00;;;1.60;99.90;;;;;;4994178;28;20297;-69
2024/01/16 08:30:21;;;;;;;9.52;2.90;;;1.60;99.90;;;;;;4985886;28;20319;-70
2024/01/16 08:32:48;;;;;;;4.70;2.63;;;1.60;99.90;;;;;;4993235;28;20285;-71
2024/01/16 08:35:15;;;;;;;10.77;4.32;;;1.70;99.90;;;;;;4993492;28;20265;-71
2024/01/16 08:37:42;;;;;;;5.65;3.35;;;1.60;99.90;;;;;;4989118;28;20254;-70
2024/01/16 08:40:11;;;;;;;9.90;3.72;;;1.60;99.90;;;;;;4990622;28;20672;-69
2024/01/16 08:42:39;;;;;;;10.70;3.20;;;1.60;99.90;;;;;;4992667;28;20221;-72
2024/01/16 08:45:07;;;;;;;5.25;3.35;;;1.60;99.90;;;;;;4993346;28;20209;-70
2024/01/16 08:47:34;;;;;;;11.52;4.35;;;1.70;99.90;;;;;;4993690;28;20244;-70
2024/01/16 08:50:02;;;;;;;10.40;3.83;;;1.70;99.90;;;;;;4986113;28;20241;-69
2024/01/16 08:52:29;;;;;;;6.30;4.43;;;1.70;99.90;;;;;;4998009;28;20222;-71
2024/01/16 08:54:55;;;;;;;16.27;5.75;;;1.80;99.90;;;;;;4990253;28;20288;-69
2024/01/16 08:57:22;;;;;;;8.32;4.72;;;1.90;99.90;;;;;;4992996;28;20241;-70
2024/01/16 08:59:51;;;;;;;10.82;5.57;;;2.00;99.90;;;;;;4993438;28;20245;-69
2024/01/16 09:02:17;;;;;;;12.77;6.10;;;2.00;99.90;;;;;;4992593;28;20226;-71
2024/01/16 09:04:45;;;;;;;7.50;4.65;;;1.90;99.90;;;;;;4993483;28;20211;-71
2024/01/16 09:07:15;;;;;;;12.07;6.07;;;1.90;99.90;;;;;;4993050;28;20214;-69
2024/01/16 09:09:42;;;;;;;9.00;5.68;;;1.90;99.90;;;;;;4993805;28;20284;-71
2024/01/16 09:12:09;;;;;;;8.70;6.80;;;2.00;99.90;;;;;;4992519;28;20217;-69
2024/01/16 09:14:37;;;;;;;11.00;5.75;;;2.00;99.90;;;;;;4993235;28;20246;-71
2024/01/16 09:17:05;;;;;;;17.50;4.78;;;2.00;99.90;;;;;;4991052;28;20229;-70
2024/01/16 09:19:32;;;;;;;9.95;4.15;;;2.10;99.90;;;;;;4991395;28;20294;-71
2024/01/16 09:21:59;;;;;;;10.38;5.40;;;2.10;99.90;;;;;;4991662;28;20609;-73
2024/01/16 09:24:26;;;;;;;11.77;5.13;;;2.00;99.90;;;;;;4986950;28;20214;-71
2024/01/16 09:26:53;;;;;;;11.18;5.22;;;2.00;99.90;;;;;;4992842;28;20735;-68
2024/01/16 09:29:21;;;;;;;17.42;5.00;;;2.00;99.90;;;;;;4992657;28;20237;-68
2024/01/16 09:31:48;;;;;;;16.48;5.85;;;2.10;99.90;;;;;;4991575;28;20226;-70
2024/01/16 09:34:17;;;;;;;9.90;5.03;;;2.70;99.90;;;;;;4993013;28;20214;-71
2024/01/16 09:36:44;;;;;;;8.77;5.45;;;2.80;99.90;;;;;;4992518;28;20629;-71
2024/01/16 09:39:11;;;;;;;11.18;5.03;;;2.70;99.90;;;;;;4984551;28;20245;-71
2024/01/16 09:41:39;;;;;;;8.32;5.43;;;2.90;99.90;;;;;;4991731;28;20236;-69
2024/01/16 09:44:07;;;;;;;7.90;4.30;;;2.90;99.90;;;;;;4983881;28;20202;-70
2024/01/16 09:46:37;;;;;;;4.75;3.75;;;3.00;99.90;;;;;;4988977;28;20198;-70
2024/01/16 09:49:05;;;;;;;5.72;3.35;;;3.00;99.90;;;;;;4991719;28;20293;-71
2024/01/16 09:51:33;;;;;;;14.85;4.10;;;3.20;99.90;;;;;;4989566;28;20237;-72
2024/01/16 09:54:01;;;;;;;12.50;3.47;;;3.20;99.90;;;;;;4992728;28;20685;-69
2024/01/16 09:56:29;;;;;;;10.98;4.30;;;3.10;99.90;;;;;;4992505;28;20229;-69
2024/01/16 09:59:02;;;;;;;5.78;3.80;;;3.20;99.90;;;;;;4990280;28;20660;-71
2024/01/16 10:01:30;;;;;;;10.50;4.25;;;3.40;99.90;;;;;;4991159;28;20245;-69
2024/01/16 10:03:58;;;;;;;5.18;4.68;;;3.60;99.90;;;;;;4992665;28;20253;-71
2024/01/16 10:06:27;;;;;;;8.90;5.00;;;3.50;99.90;;;;;;4990136;28;20202;-69
2024/01/16 10:08:56;;;;;;;15.48;6.72;;;3.30;99.90;;;;;;4986385;28;20499;-69
2024/01/16 10:11:22;;;;;;;12.13;4.45;;;3.30;99.90;;;;;;4986482;28;20229;-68
2024/01/16 10:13:49;;;;;;;13.38;4.80;;;3.20;99.90;;;;;;4992272;28;20237;-69
2024/01/16 10:16:16;;;;;;;13.00;5.00;;;3.30;99.90;;;;;;4988160;28;20314;-70
2024/01/16 10:18:44;;;;;;;11.55;4.45;;;3.20;99.90;;;;;;4990138;28;20233;-72
2024/01/16 10:21:22;;;;;;;6.35;4.22;;;3.30;99.90;;;;;;4992050;28;20202;-69
2024/01/16 10:23:50;;;;;;;14.57;4.80;;;3.40;99.90;;;;;;4992348;28;20627;-70
2024/01/16 10:26:19;;;;;;;13.45;7.07;;;3.60;99.90;;;;;;4992266;28;20205;-70
2024/01/16 10:28:46;;;;;;;9.63;3.95;;;3.90;99.90;;;;;;4991704;28;20344;-71
2024/01/16 10:31:15;;;;;;;15.00;4.88;;;3.80;99.90;;;;;;4992153;28;20260;-70
2024/01/16 10:33:42;;;;;;;10.35;5.68;;;3.80;99.90;;;;;;4989038;28;20217;-70
2024/01/16 10:36:11;;;;;;;7.20;4.88;;;3.60;99.90;;;;;;4992822;28;20218;-70
2024/01/16 10:38:39;;;;;;;10.07;5.22;;;3.70;99.90;;;;;;4995792;28;20232;-68
2024/01/16 10:41:07;;;;;;;10.45;5.38;;;3.60;99.90;;;;;;4994219;28;20252;-70
2024/01/16 10:43:35;;;;;;;17.75;6.97;;;3.70;99.90;;;;;;4983602;28;20241;-68
2024/01/16 10:46:13;;;;;;;9.65;7.07;;;3.70;99.90;;;;;;4987406;28;20226;-70
2024/01/16 10:48:41;;;;;;;9.27;6.60;;;3.80;99.90;;;;;;4992360;28;20228;-71
2024/01/16 10:51:11;;;;;;;7.90;6.43;;;3.90;99.90;;;;;;4990732;28;20205;-72
2024/01/16 10:53:41;;;;;;;12.23;7.18;;;3.90;99.90;;;;;;4987538;28;20273;-72
2024/01/16 10:56:11;;;;;;;12.93;6.40;;;3.90;99.90;;;;;;4995026;28;20222;-67
2024/01/16 10:58:42;;;;;;;8.55;5.68;;;3.80;99.90;;;;;;4990027;28;20202;-69
2024/01/16 11:01:12;;;;;;;12.52;6.40;;;3.90;99.90;;;;;;4994204;28;20621;-69
2024/01/16 11:03:44;;;;;;;14.07;7.32;;;4.00;99.90;;;;;;4982552;28;20234;-69
2024/01/16 11:06:13;;;;;;;12.30;7.15;;;3.90;99.90;;;;;;4993611;28;20210;-69
2024/01/16 11:08:41;;;;;;;10.43;7.57;;;3.60;99.90;;;;;;4995602;28;20210;-69
2024/01/16 11:11:08;;;;;;;9.63;6.30;;;3.40;99.90;;;;;;4986607;28;20234;-69
2024/01/16 11:13:37;;;;;;;11.55;7.60;;;3.40;99.90;;;;;;4990850;28;20226;-70
2024/01/16 11:16:07;;;;;;;14.50;7.88;;;3.30;99.90;;;;;;4986207;28;20309;-73
2024/01/16 11:18:36;;;;;;;12.07;7.68;;;3.40;99.90;;;;;;4991769;28;20207;-67
2024/01/16 11:21:05;;;;;;;17.00;11.05;;;3.50;99.90;;;;;;4990985;28;20665;-71
2024/01/16 11:23:32;;;;;;;17.08;11.77;;;3.40;99.90;;;;;;4983742;28;20226;-71
2024/01/16 11:26:00;;;;;;;17.27;12.45;;;3.30;99.90;;;;;;4992713;28;20212;-70
2024/01/16 11:28:30;;;;;;;20.67;13.18;;;3.20;99.90;;;;;;4994663;28;20213;-71
2024/01/16 11:30:57;;;;;;;17.10;11.88;;;3.10;99.90;;;;;;4995035;28;20237;-73
2024/01/16 11:33:45;;;;;;;22.05;15.32;;;3.20;99.90;;;;;;4986437;28;20288;-69
2024/01/16 11:36:53;;;;;;;19.92;14.30;;;3.20;99.90;;;;;;4987817;28;20230;-71
2024/01/16 11:39:22;;;;;;;21.33;14.15;;;3.10;99.90;;;;;;4978397;28;20213;-70
2024/01/16 11:41:53;;;;;;;17.63;12.40;;;3.00;99.90;;;;;;4991584;28;20237;-72
2024/01/16 11:44:45;;;;;;;24.17;14.77;;;2.90;99.90;;;;;;4985853;28;20234;-73
2024/01/16 11:47:17;;;;;;;22.60;12.85;;;2.70;99.90;;;;;;4990374;28;20202;-73
2024/01/16 11:49:46;;;;;;;18.85;12.10;;;2.70;99.90;;;;;;4990404;28;20245;-72
2024/01/16 11:52:13;;;;;;;15.85;10.15;;;2.60;99.90;;;;;;4992438;28;20221;-70
2024/01/16 11:54:41;;;;;;;15.68;9.90;;;2.40;99.90;;;;;;4990994;28;20215;-71
2024/01/16 11:57:42;;;;;;;16.92;9.23;;;2.40;99.90;;;;;;4986616;28;20599;-68
2024/01/16 12:00:21;;;;;;;16.17;8.50;;;2.40;99.90;;;;;;4964023;28;20689;-71
2024/01/16 12:02:53;;;;;;;14.25;8.40;;;2.40;99.90;;;;;;4982964;28;20249;-70
2024/01/16 12:05:22;;;;;;;10.77;7.05;;;2.60;99.90;;;;;;4987544;28;20498;-71
2024/01/16 12:07:52;;;;;;;18.27;9.68;;;2.60;99.90;;;;;;4993673;28;20622;-71
2024/01/16 12:10:19;;;;;;;13.68;9.15;;;2.60;99.90;;;;;;4992320;28;20206;-74
2024/01/16 12:12:47;;;;;;;13.65;8.55;;;2.60;99.90;;;;;;4990767;28;20712;-73
2024/01/16 12:15:17;;;;;;;11.45;8.95;;;2.70;99.90;;;;;;4985745;28;20620;-71
2024/01/16 12:17:59;;;;;;;17.75;10.77;;;2.60;99.90;;;;;;4986496;28;20703;-73
2024/01/16 12:20:31;;;;;;;22.38;11.80;;;2.60;99.90;;;;;;4992171;28;20240;-71
2024/01/16 12:22:59;;;;;;;16.20;11.15;;;2.50;99.90;;;;;;4988981;28;20630;-70
2024/01/16 12:25:27;;;;;;;20.15;12.63;;;2.50;99.90;;;;;;4990538;28;20212;-71
2024/01/16 12:27:58;;;;;;;21.08;13.23;;;2.50;99.90;;;;;;4989368;28;20353;-72
2024/01/16 12:30:28;;;;;;;13.75;10.38;;;2.60;99.90;;;;;;4990739;28;20210;-71
2024/01/16 12:33:06;;;;;;;17.65;11.07;;;2.80;99.90;;;;;;4980657;28;20721;-71
2024/01/16 12:35:35;;;;;;;18.23;11.63;;;2.70;99.90;;;;;;4984190;28;20234;-69
2024/01/16 12:38:03;;;;;;;20.35;12.25;;;2.70;99.90;;;;;;4981674;28;20633;-70
2024/01/16 12:40:31;;;;;;;17.17;12.27;;;2.70;99.90;;;;;;4987535;28;20261;-75
2024/01/16 12:42:57;;;;;;;21.65;12.27;;;2.60;99.90;;;;;;4986915;28;20227;-71
2024/01/16 12:45:25;;;;;;;16.13;10.77;;;2.60;99.90;;;;;;4990536;28;20575;-70
2024/01/16 12:47:53;;;;;;;19.60;11.15;;;2.50;99.90;;;;;;4989922;28;20525;-74
2024/01/16 12:50:21;;;;;;;17.65;9.88;;;2.50;99.90;;;;;;4984698;28;20666;-71
2024/01/16 12:52:50;;;;;;;15.85;8.73;;;2.50;99.90;;;;;;4993539;28;20226;-69
2024/01/16 12:55:19;;;;;;;14.63;8.80;;;2.60;99.90;;;;;;4986832;28;20211;-69
2024/01/16 12:57:46;;;;;;;15.25;9.50;;;2.60;99.90;;;;;;4987847;28;20237;-70